createdAt,value
2019-05-10T00:00:05.801Z,0.00
2019-05-10T00:01:05.755Z,0.00
2019-05-10T00:02:05.772Z,0.00
2019-05-10T00:03:05.768Z,0.00
2019-05-10T00:04:05.817Z,0.00
2019-05-10T00:05:05.753Z,0.00
2019-05-10T00:06:05.737Z,0.00
2019-05-10T00:07:07.349Z,0.00
2019-05-10T00:08:05.754Z,0.00
2019-05-10T00:09:05.705Z,0.00
2019-05-10T00:10:05.681Z,0.00
2019-05-10T00:11:05.831Z,0.00
2019-05-10T00:12:05.657Z,0.00
2019-05-10T00:13:05.655Z,0.00
2019-05-10T00:14:05.654Z,0.00
2019-05-10T00:15:05.616Z,0.00
2019-05-10T00:16:06.509Z,0.00
2019-05-10T00:17:05.637Z,0.00
2019-05-10T00:18:05.593Z,0.00
2019-05-10T00:19:05.581Z,0.00
2019-05-10T00:20:05.575Z,0.00
2019-05-10T00:21:05.546Z,0.00
2019-05-10T00:22:05.606Z,0.00
2019-05-10T00:23:05.556Z,0.00
2019-05-10T00:24:05.515Z,0.00
2019-05-10T00:25:06.416Z,0.00
2019-05-10T00:26:05.491Z,0.00
2019-05-10T00:27:05.499Z,0.00
2019-05-10T00:28:05.529Z,0.00
2019-05-10T00:29:05.514Z,0.00
2019-05-10T00:30:05.464Z,0.00
2019-05-10T00:31:05.491Z,0.00
2019-05-10T00:32:05.436Z,0.00
2019-05-10T00:33:05.458Z,0.00
2019-05-10T00:34:05.447Z,0.00
2019-05-10T00:35:05.422Z,0.00
2019-05-10T00:36:05.407Z,0.00
2019-05-10T00:37:05.428Z,0.00
2019-05-10T00:38:05.413Z,0.00
2019-05-10T00:39:05.408Z,0.00
2019-05-10T00:40:05.392Z,0.00
2019-05-10T00:41:05.350Z,0.00
2019-05-10T00:42:05.354Z,0.00
2019-05-10T00:43:05.341Z,0.00
2019-05-10T00:44:05.362Z,0.00
2019-05-10T00:45:05.346Z,0.00
2019-05-10T00:46:05.319Z,0.00
2019-05-10T00:47:05.371Z,0.00
2019-05-10T00:48:05.267Z,0.00
2019-05-10T00:49:05.296Z,0.00
2019-05-10T00:50:05.280Z,0.00
2019-05-10T00:51:05.238Z,0.00
2019-05-10T00:52:05.230Z,0.00
2019-05-10T00:53:05.295Z,0.00
2019-05-10T00:54:05.253Z,0.00
2019-05-10T00:55:17.728Z,0.00
2019-05-10T00:56:06.177Z,0.00
2019-05-10T00:57:05.160Z,0.00
2019-05-10T00:58:05.176Z,0.00
2019-05-10T00:59:05.176Z,0.00
2019-05-10T01:00:05.136Z,0.00
2019-05-10T01:01:05.147Z,0.00
2019-05-10T01:02:14.556Z,0.00
2019-05-10T01:03:14.483Z,0.00
2019-05-10T01:04:14.998Z,0.00
2019-05-10T01:05:13.496Z,0.00
2019-05-10T01:06:14.555Z,0.00
2019-05-10T01:08:21.957Z,0.00
2019-05-10T01:09:29.599Z,0.00
2019-05-10T01:10:30.346Z,0.00
2019-05-10T01:11:31.392Z,0.00
2019-05-10T01:12:31.892Z,0.00
2019-05-10T01:13:31.427Z,0.00
2019-05-10T01:14:21.886Z,0.00
2019-05-10T01:15:21.906Z,0.00
2019-05-10T01:16:21.879Z,0.00
2019-05-10T01:17:21.856Z,0.00
2019-05-10T01:18:21.923Z,0.00
2019-05-10T01:19:21.822Z,0.00
2019-05-10T01:20:31.434Z,0.00
2019-05-10T01:21:21.804Z,0.00
2019-05-10T01:22:21.786Z,0.00
2019-05-10T01:23:21.800Z,0.00
2019-05-10T01:24:21.786Z,0.00
2019-05-10T01:25:34.065Z,0.00
2019-05-10T01:26:22.755Z,0.00
2019-05-10T01:27:21.785Z,0.00
2019-05-10T01:28:21.751Z,0.00
2019-05-10T01:29:21.724Z,0.00
2019-05-10T01:30:21.722Z,0.00
2019-05-10T01:31:21.731Z,0.00
2019-05-10T01:32:21.741Z,0.00
2019-05-10T01:33:21.676Z,0.00
2019-05-10T01:34:21.661Z,0.00
2019-05-10T01:35:21.694Z,0.00
2019-05-10T01:36:21.677Z,0.00
2019-05-10T01:37:21.650Z,0.00
2019-05-10T01:38:21.644Z,0.00
2019-05-10T01:39:21.624Z,0.00
2019-05-10T01:40:21.597Z,0.00
2019-05-10T01:41:21.605Z,0.00
2019-05-10T01:42:21.600Z,0.00
2019-05-10T01:43:21.576Z,0.00
2019-05-10T01:44:21.570Z,0.00
2019-05-10T01:45:21.543Z,0.00
2019-05-10T01:46:21.574Z,0.00
2019-05-10T01:47:21.557Z,0.00
2019-05-10T01:48:21.546Z,0.00
2019-05-10T01:49:21.511Z,0.00
2019-05-10T01:50:21.505Z,0.00
2019-05-10T01:51:21.489Z,0.00
2019-05-10T01:52:21.485Z,0.00
2019-05-10T01:53:21.522Z,0.00
2019-05-10T01:54:21.456Z,0.00
2019-05-10T01:55:21.478Z,0.00
2019-05-10T01:56:21.460Z,0.00
2019-05-10T01:57:21.488Z,0.00
2019-05-10T01:58:21.463Z,0.00
2019-05-10T01:59:21.435Z,0.00
2019-05-10T02:00:21.410Z,0.00
2019-05-10T02:01:21.402Z,0.00
2019-05-10T02:02:21.399Z,0.00
2019-05-10T02:03:21.380Z,0.00
2019-05-10T02:04:21.350Z,0.00
2019-05-10T02:05:21.346Z,0.00
2019-05-10T02:06:21.334Z,0.00
2019-05-10T02:07:22.637Z,0.00
2019-05-10T02:08:24.555Z,0.00
2019-05-10T02:09:22.412Z,0.00
2019-05-10T02:10:22.875Z,0.00
2019-05-10T02:11:21.304Z,0.00
2019-05-10T02:12:21.564Z,0.00
2019-05-10T02:13:21.471Z,0.00
2019-05-10T02:14:22.720Z,0.00
2019-05-10T02:15:21.342Z,0.00
2019-05-10T02:16:22.925Z,0.00
2019-05-10T02:17:22.377Z,0.00
2019-05-10T02:18:22.043Z,0.00
2019-05-10T02:19:21.888Z,0.00
2019-05-10T02:20:22.275Z,0.00
2019-05-10T02:21:23.009Z,0.00
2019-05-10T02:22:22.177Z,0.00
2019-05-10T02:23:23.583Z,0.00
2019-05-10T02:24:22.009Z,0.00
2019-05-10T02:25:22.381Z,0.00
2019-05-10T02:26:21.262Z,0.00
2019-05-10T02:27:21.882Z,0.00
2019-05-10T02:28:22.043Z,0.00
2019-05-10T02:29:22.411Z,0.00
2019-05-10T02:30:21.886Z,0.00
2019-05-10T02:31:21.896Z,0.00
2019-05-10T02:32:22.465Z,0.00
2019-05-10T02:33:21.971Z,0.00
2019-05-10T02:34:21.362Z,0.00
2019-05-10T02:35:21.160Z,0.00
2019-05-10T02:36:22.211Z,0.00
2019-05-10T02:37:22.676Z,0.00
2019-05-10T02:38:21.900Z,0.00
2019-05-10T02:39:22.888Z,0.00
2019-05-10T02:40:22.224Z,0.00
2019-05-10T02:41:21.896Z,0.00
2019-05-10T02:42:21.892Z,0.00
2019-05-10T02:43:21.098Z,0.00
2019-05-10T02:44:21.886Z,0.00
2019-05-10T02:45:21.027Z,0.00
2019-05-10T02:46:21.456Z,0.00
2019-05-10T02:47:21.018Z,0.00
2019-05-10T02:48:20.918Z,0.00
2019-05-10T02:49:20.914Z,0.00
2019-05-10T02:50:20.892Z,0.00
2019-05-10T02:51:20.854Z,4.00
2019-05-10T02:52:20.845Z,4.00
2019-05-10T02:53:20.861Z,0.00
2019-05-10T02:54:20.822Z,4.00
2019-05-10T02:55:20.893Z,4.00
2019-05-10T02:56:30.286Z,4.00
2019-05-10T02:57:21.812Z,4.00
2019-05-10T02:58:20.820Z,8.00
2019-05-10T02:59:20.791Z,4.00
2019-05-10T03:00:20.755Z,8.00
2019-05-10T03:01:20.748Z,8.00
2019-05-10T03:02:20.804Z,8.00
2019-05-10T03:03:20.729Z,12.00
2019-05-10T03:04:20.748Z,12.00
2019-05-10T03:05:20.725Z,12.00
2019-05-10T03:06:20.712Z,12.00
2019-05-10T03:07:20.814Z,16.00
2019-05-10T03:08:20.680Z,16.00
2019-05-10T03:09:20.680Z,20.00
2019-05-10T03:10:20.689Z,20.00
2019-05-10T03:11:20.682Z,24.00
2019-05-10T03:12:20.659Z,24.00
2019-05-10T03:13:20.619Z,32.00
2019-05-10T03:14:20.640Z,32.00
2019-05-10T03:15:20.625Z,40.00
2019-05-10T03:16:20.686Z,48.00
2019-05-10T03:17:20.602Z,52.00
2019-05-10T03:18:20.561Z,60.00
2019-05-10T03:19:20.560Z,68.00
2019-05-10T03:20:20.590Z,76.00
2019-05-10T03:21:20.562Z,84.00
2019-05-10T03:22:20.533Z,92.00
2019-05-10T03:23:20.545Z,100.00
2019-05-10T03:24:20.529Z,104.00
2019-05-10T03:25:20.499Z,108.00
2019-05-10T03:26:20.532Z,120.00
2019-05-10T03:27:20.483Z,128.00
2019-05-10T03:28:20.593Z,136.00
2019-05-10T03:29:20.477Z,140.00
2019-05-10T03:30:20.464Z,148.00
2019-05-10T03:31:20.450Z,156.00
2019-05-10T03:32:20.446Z,164.00
2019-05-10T03:33:20.451Z,172.00
2019-05-10T03:34:20.419Z,176.00
2019-05-10T03:35:20.396Z,184.00
2019-05-10T03:36:20.365Z,188.00
2019-05-10T03:37:20.421Z,196.00
2019-05-10T03:38:20.356Z,204.00
2019-05-10T03:39:20.392Z,212.00
2019-05-10T03:40:20.330Z,224.00
2019-05-10T03:41:20.325Z,232.00
2019-05-10T03:42:20.372Z,240.00
2019-05-10T03:43:20.350Z,252.00
2019-05-10T03:44:20.298Z,264.00
2019-05-10T03:45:20.279Z,272.00
2019-05-10T03:46:20.477Z,280.00
2019-05-10T03:47:20.334Z,292.00
2019-05-10T03:48:20.268Z,300.00
2019-05-10T03:49:20.313Z,316.00
2019-05-10T03:50:20.225Z,332.00
2019-05-10T03:51:20.212Z,348.00
2019-05-10T03:52:20.212Z,356.00
2019-05-10T03:53:20.260Z,372.00
2019-05-10T03:54:20.228Z,388.00
2019-05-10T03:55:20.196Z,404.00
2019-05-10T03:56:20.179Z,420.00
2019-05-10T03:57:20.149Z,432.00
2019-05-10T03:58:20.157Z,444.00
2019-05-10T03:59:20.144Z,460.00
2019-05-10T04:00:20.131Z,476.00
2019-05-10T04:01:20.118Z,496.00
2019-05-10T04:02:20.103Z,508.00
2019-05-10T04:03:20.093Z,524.00
2019-05-10T04:04:20.325Z,536.00
2019-05-10T04:05:20.094Z,548.00
2019-05-10T04:06:20.065Z,560.00
2019-05-10T04:07:20.045Z,576.00
2019-05-10T04:08:20.030Z,588.00
2019-05-10T04:09:20.059Z,608.00
2019-05-10T04:10:21.093Z,624.00
2019-05-10T04:11:20.044Z,648.00
2019-05-10T04:12:20.247Z,668.00
2019-05-10T04:13:23.189Z,692.00
2019-05-10T04:14:20.342Z,716.00
2019-05-10T04:15:23.784Z,736.00
2019-05-10T04:16:20.107Z,756.00
2019-05-10T04:17:20.919Z,780.00
2019-05-10T04:18:19.964Z,796.00
2019-05-10T04:19:22.115Z,820.00
2019-05-10T04:20:20.769Z,856.00
2019-05-10T04:21:20.005Z,900.00
2019-05-10T04:22:22.083Z,936.00
2019-05-10T04:23:20.327Z,980.00
2019-05-10T04:24:19.885Z,1020.00
2019-05-10T04:25:19.866Z,1060.00
2019-05-10T04:26:19.863Z,1096.00
2019-05-10T04:27:31.497Z,1136.00
2019-05-10T04:28:22.464Z,1172.00
2019-05-10T04:29:19.889Z,1216.00
2019-05-10T04:30:19.812Z,1248.00
2019-05-10T04:31:19.948Z,1280.00
2019-05-10T04:32:20.409Z,1320.00
2019-05-10T04:33:19.812Z,1360.00
2019-05-10T04:34:19.767Z,1412.00
2019-05-10T04:35:20.072Z,1464.00
2019-05-10T04:36:19.969Z,1516.00
2019-05-10T04:37:19.737Z,1568.00
2019-05-10T04:38:19.900Z,1620.00
2019-05-10T04:39:19.761Z,1672.00
2019-05-10T04:40:20.341Z,1716.00
2019-05-10T04:41:19.863Z,1740.00
2019-05-10T04:42:20.117Z,1748.00
2019-05-10T04:43:20.867Z,1740.00
2019-05-10T04:44:20.421Z,1728.00
2019-05-10T04:45:21.930Z,1716.00
2019-05-10T04:46:19.668Z,1724.00
2019-05-10T04:47:23.905Z,1728.00
2019-05-10T04:48:19.679Z,1780.00
2019-05-10T04:49:19.623Z,1840.00
2019-05-10T04:50:19.590Z,1868.00
2019-05-10T04:51:19.596Z,1920.00
2019-05-10T04:52:19.671Z,1988.00
2019-05-10T04:53:19.568Z,2024.00
2019-05-10T04:54:19.682Z,2016.00
2019-05-10T04:55:19.581Z,2008.00
2019-05-10T04:56:19.578Z,2004.00
2019-05-10T04:57:21.727Z,2020.00
2019-05-10T04:58:19.516Z,2044.00
2019-05-10T04:59:21.307Z,2076.00
2019-05-10T05:00:19.485Z,2104.00
2019-05-10T05:01:20.418Z,2188.00
2019-05-10T05:02:22.075Z,2248.00
2019-05-10T05:03:20.532Z,2296.00
2019-05-10T05:04:24.339Z,2360.00
2019-05-10T05:05:29.858Z,2436.00
2019-05-10T05:06:19.409Z,2500.00
2019-05-10T05:07:19.393Z,2572.00
2019-05-10T05:08:20.651Z,2664.00
2019-05-10T05:09:24.457Z,2756.00
2019-05-10T05:10:25.647Z,2792.00
2019-05-10T05:11:19.958Z,2784.00
2019-05-10T05:12:29.111Z,2808.00
2019-05-10T05:13:21.066Z,2840.00
2019-05-10T05:14:22.131Z,2900.00
2019-05-10T05:15:19.414Z,2972.00
2019-05-10T05:16:21.171Z,3012.00
2019-05-10T05:17:22.058Z,3040.00
2019-05-10T05:18:22.605Z,3084.00
2019-05-10T05:19:19.287Z,3132.00
2019-05-10T05:20:19.278Z,3184.00
2019-05-10T05:21:19.278Z,3216.00
2019-05-10T05:22:19.252Z,3248.00
2019-05-10T05:23:19.224Z,3284.00
2019-05-10T05:24:22.900Z,3328.00
2019-05-10T05:25:21.995Z,3392.00
2019-05-10T05:26:21.065Z,3460.00
2019-05-10T05:27:20.994Z,3528.00
2019-05-10T05:28:23.286Z,3636.00
2019-05-10T05:29:22.007Z,3720.00
2019-05-10T05:30:20.640Z,3752.00
2019-05-10T05:31:34.228Z,3760.00
2019-05-10T05:32:20.058Z,3776.00
2019-05-10T05:33:20.090Z,3776.00
2019-05-10T05:34:19.677Z,3796.00
2019-05-10T05:35:19.168Z,3804.00
2019-05-10T05:36:19.240Z,3824.00
2019-05-10T05:37:19.124Z,3860.00
2019-05-10T05:38:19.307Z,3928.00
2019-05-10T05:39:19.212Z,4008.00
2019-05-10T05:40:19.106Z,4156.00
2019-05-10T05:41:19.075Z,4336.00
2019-05-10T05:42:22.381Z,4568.00
2019-05-10T05:43:21.773Z,4772.00
2019-05-10T05:44:20.263Z,4968.00
2019-05-10T05:45:20.187Z,5056.00
2019-05-10T05:46:19.082Z,5188.00
2019-05-10T05:47:19.686Z,5192.00
2019-05-10T05:48:21.529Z,5324.00
2019-05-10T05:49:18.971Z,5368.00
2019-05-10T05:50:18.994Z,6404.00
2019-05-10T05:51:19.093Z,6460.00
2019-05-10T05:52:18.969Z,5228.00
2019-05-10T05:53:22.425Z,5424.00
2019-05-10T05:54:20.615Z,5560.00
2019-05-10T05:55:22.766Z,5344.00
2019-05-10T05:56:19.107Z,5384.00
2019-05-10T05:57:22.243Z,5676.00
2019-05-10T05:58:26.505Z,5644.00
2019-05-10T05:59:23.799Z,5748.00
2019-05-10T06:00:19.951Z,5828.00
2019-05-10T06:01:26.124Z,5944.00
2019-05-10T06:02:20.506Z,6028.00
2019-05-10T06:03:27.767Z,6076.00
2019-05-10T06:04:19.796Z,6164.00
2019-05-10T06:05:32.708Z,7084.00
2019-05-10T06:06:22.196Z,7448.00
2019-05-10T06:07:18.756Z,7216.00
2019-05-10T06:08:22.897Z,5984.00
2019-05-10T06:09:19.750Z,5940.00
2019-05-10T06:10:19.866Z,5920.00
2019-05-10T06:11:19.499Z,5944.00
2019-05-10T06:12:18.728Z,6156.00
2019-05-10T06:13:23.515Z,5976.00
2019-05-10T06:14:19.849Z,6048.00
2019-05-10T06:15:23.078Z,6224.00
2019-05-10T06:16:22.190Z,6132.00
2019-05-10T06:17:23.831Z,6044.00
2019-05-10T06:18:19.717Z,5908.00
2019-05-10T06:19:19.944Z,5724.00
2019-05-10T06:20:19.715Z,5512.00
2019-05-10T06:21:25.110Z,5316.00
2019-05-10T06:22:19.638Z,5176.00
2019-05-10T06:23:18.640Z,5216.00
2019-05-10T06:24:18.649Z,4956.00
2019-05-10T06:25:18.733Z,4884.00
2019-05-10T06:26:26.503Z,4828.00
2019-05-10T06:27:19.638Z,4780.00
2019-05-10T06:28:26.899Z,4832.00
2019-05-10T06:29:19.860Z,4936.00
2019-05-10T06:30:18.560Z,5148.00
2019-05-10T06:31:18.554Z,5396.00
2019-05-10T06:32:18.615Z,5604.00
2019-05-10T06:33:21.132Z,5816.00
2019-05-10T06:34:18.533Z,5984.00
2019-05-10T06:35:19.548Z,6156.00
2019-05-10T06:36:18.563Z,6332.00
2019-05-10T06:37:18.562Z,6480.00
2019-05-10T06:38:18.490Z,6624.00
2019-05-10T06:39:18.541Z,6792.00
2019-05-10T06:40:25.659Z,7016.00
2019-05-10T06:41:19.422Z,7284.00
2019-05-10T06:42:18.655Z,7544.00
2019-05-10T06:43:18.448Z,7764.00
2019-05-10T06:44:18.458Z,7896.00
2019-05-10T06:45:18.372Z,8008.00
2019-05-10T06:46:18.483Z,8068.00
2019-05-10T06:47:21.681Z,8076.00
2019-05-10T06:48:25.763Z,8084.00
2019-05-10T06:49:19.349Z,8064.00
2019-05-10T06:50:28.997Z,8036.00
2019-05-10T06:51:19.379Z,7996.00
2019-05-10T06:52:22.023Z,7932.00
2019-05-10T06:53:22.993Z,7828.00
2019-05-10T06:54:19.022Z,7732.00
2019-05-10T06:55:18.275Z,7704.00
2019-05-10T06:56:18.288Z,7756.00
2019-05-10T06:57:19.388Z,7848.00
2019-05-10T06:58:19.013Z,8012.00
2019-05-10T06:59:19.455Z,8160.00
2019-05-10T07:00:20.207Z,8460.00
2019-05-10T07:01:18.228Z,8540.00
2019-05-10T07:02:19.938Z,8652.00
2019-05-10T07:03:19.256Z,8328.00
2019-05-10T07:04:19.098Z,8308.00
2019-05-10T07:05:18.258Z,8312.00
2019-05-10T07:06:20.063Z,8408.00
2019-05-10T07:07:33.112Z,8048.00
2019-05-10T07:08:20.584Z,7888.00
2019-05-10T07:09:19.015Z,7528.00
2019-05-10T07:10:19.380Z,7476.00
2019-05-10T07:11:19.136Z,7456.00
2019-05-10T07:12:18.554Z,7408.00
2019-05-10T07:13:18.210Z,7376.00
2019-05-10T07:14:18.516Z,7300.00
2019-05-10T07:15:18.092Z,7184.00
2019-05-10T07:16:24.096Z,7036.00
2019-05-10T07:17:20.016Z,6852.00
2019-05-10T07:18:22.533Z,6612.00
2019-05-10T07:19:19.082Z,6468.00
2019-05-10T07:20:18.059Z,6436.00
2019-05-10T07:21:17.977Z,6404.00
2019-05-10T07:22:21.673Z,6348.00
2019-05-10T07:23:19.034Z,6160.00
2019-05-10T07:24:24.347Z,5936.00
2019-05-10T07:25:18.974Z,5724.00
2019-05-10T07:26:24.599Z,5580.00
2019-05-10T07:27:18.952Z,5500.00
2019-05-10T07:28:17.980Z,5476.00
2019-05-10T07:29:29.723Z,5512.00
2019-05-10T07:30:18.896Z,5652.00
2019-05-10T07:31:17.906Z,5852.00
2019-05-10T07:32:22.118Z,6132.00
2019-05-10T07:33:21.025Z,6456.00
2019-05-10T07:34:17.884Z,6812.00
2019-05-10T07:35:17.894Z,7116.00
2019-05-10T07:36:20.920Z,7360.00
2019-05-10T07:37:18.831Z,7504.00
2019-05-10T07:38:23.520Z,7592.00
2019-05-10T07:39:18.843Z,7728.00
2019-05-10T07:40:18.525Z,7876.00
2019-05-10T07:41:19.648Z,8072.00
2019-05-10T07:42:18.911Z,8276.00
2019-05-10T07:43:24.877Z,8360.00
2019-05-10T07:44:19.688Z,8280.00
2019-05-10T07:45:18.763Z,8136.00
2019-05-10T07:46:18.729Z,7908.00
2019-05-10T07:47:18.575Z,7748.00
2019-05-10T07:48:17.943Z,7572.00
2019-05-10T07:49:17.730Z,7528.00
2019-05-10T07:50:17.846Z,7516.00
2019-05-10T07:51:22.681Z,7644.00
2019-05-10T07:52:18.676Z,7800.00
2019-05-10T07:53:22.908Z,8196.00
2019-05-10T07:54:18.672Z,8672.00
2019-05-10T07:55:25.346Z,9064.00
2019-05-10T07:56:19.579Z,9480.00
2019-05-10T07:57:18.591Z,9864.00
2019-05-10T07:58:18.589Z,10180.00
2019-05-10T07:59:21.962Z,10388.00
2019-05-10T08:00:18.567Z,10632.00
2019-05-10T08:01:29.083Z,10712.00
2019-05-10T08:02:18.557Z,10708.00
2019-05-10T08:03:23.359Z,10876.00
2019-05-10T08:04:27.574Z,10924.00
2019-05-10T08:05:18.620Z,11244.00
2019-05-10T08:06:19.350Z,11760.00
2019-05-10T08:07:18.552Z,13128.00
2019-05-10T08:08:19.217Z,13788.00
2019-05-10T08:09:19.279Z,13316.00
2019-05-10T08:10:19.066Z,13808.00
2019-05-10T08:12:40.135Z,13896.00
2019-05-10T08:13:45.635Z,13700.00
2019-05-10T08:15:52.270Z,12780.00
2019-05-10T08:17:05.789Z,13372.00
2019-05-10T08:17:52.223Z,14456.00
2019-05-10T08:18:55.574Z,16576.00
2019-05-10T08:19:55.058Z,15584.00
2019-05-10T08:20:57.742Z,13172.00
2019-05-10T08:21:57.403Z,14316.00
2019-05-10T08:22:53.220Z,13944.00
2019-05-10T08:23:53.997Z,16352.00
2019-05-10T08:24:55.896Z,14412.00
2019-05-10T08:27:14.006Z,16736.00
2019-05-10T08:28:09.725Z,16480.00
2019-05-10T08:29:15.129Z,18496.00
2019-05-10T08:30:22.756Z,17408.00
2019-05-10T08:31:12.183Z,16512.00
2019-05-10T08:32:08.648Z,16928.00
2019-05-10T08:33:10.851Z,17088.00
2019-05-10T08:34:08.681Z,17248.00
2019-05-10T08:35:16.207Z,16768.00
2019-05-10T08:36:11.968Z,13912.00
2019-05-10T08:37:08.610Z,15104.00
2019-05-10T08:38:08.697Z,13052.00
2019-05-10T08:39:11.025Z,13396.00
2019-05-10T08:40:09.480Z,13704.00
2019-05-10T08:41:13.469Z,11856.00
2019-05-10T08:42:29.391Z,12276.00
2019-05-10T08:43:13.041Z,12652.00
2019-05-10T08:44:16.638Z,11608.00
2019-05-10T08:45:09.530Z,12928.00
2019-05-10T08:46:08.617Z,11028.00
2019-05-10T08:47:12.592Z,10872.00
2019-05-10T08:48:09.525Z,10684.00
2019-05-10T08:49:09.483Z,10420.00
2019-05-10T08:50:21.552Z,10448.00
2019-05-10T08:51:09.493Z,9112.00
2019-05-10T08:52:08.549Z,7952.00
2019-05-10T08:53:10.698Z,6632.00
2019-05-10T08:54:08.469Z,6724.00
2019-05-10T08:55:08.516Z,7324.00
2019-05-10T08:56:16.063Z,10276.00
2019-05-10T08:57:12.671Z,11144.00
2019-05-10T08:58:09.384Z,10780.00
2019-05-10T08:59:14.567Z,11416.00
2019-05-10T09:00:09.487Z,12280.00
2019-05-10T09:01:20.550Z,9472.00
2019-05-10T09:02:09.395Z,9828.00
2019-05-10T09:03:09.761Z,8240.00
2019-05-10T09:04:10.874Z,9408.00
2019-05-10T09:05:08.317Z,8812.00
2019-05-10T09:06:11.862Z,12604.00
2019-05-10T09:07:11.766Z,11528.00
2019-05-10T09:08:13.555Z,11844.00
2019-05-10T09:09:09.337Z,11512.00
2019-05-10T09:10:09.692Z,11764.00
2019-05-10T09:11:08.313Z,11512.00
2019-05-10T09:12:09.332Z,12304.00
2019-05-10T09:13:08.255Z,11212.00
2019-05-10T09:14:12.380Z,11704.00
2019-05-10T09:15:10.308Z,12612.00
2019-05-10T09:16:08.262Z,13916.00
2019-05-10T09:17:08.259Z,16128.00
2019-05-10T09:18:08.351Z,13908.00
2019-05-10T09:19:08.188Z,14968.00
2019-05-10T09:20:11.984Z,15008.00
2019-05-10T09:21:10.814Z,17120.00
2019-05-10T09:22:08.999Z,15872.00
2019-05-10T09:23:08.589Z,14096.00
2019-05-10T09:24:09.275Z,11664.00
2019-05-10T09:25:08.097Z,10100.00
2019-05-10T09:26:11.725Z,10724.00
2019-05-10T09:27:09.133Z,10804.00
2019-05-10T09:28:11.511Z,10400.00
2019-05-10T09:29:09.062Z,8308.00
2019-05-10T09:30:13.055Z,8000.00
2019-05-10T09:31:18.648Z,8052.00
2019-05-10T09:32:09.265Z,8212.00
2019-05-10T09:33:09.005Z,9984.00
2019-05-10T09:34:08.119Z,10080.00
2019-05-10T09:35:09.218Z,9840.00
2019-05-10T09:36:07.995Z,10188.00
2019-05-10T09:37:13.124Z,11224.00
2019-05-10T09:38:09.033Z,11216.00
2019-05-10T09:39:12.618Z,12232.00
2019-05-10T09:40:09.865Z,12244.00
2019-05-10T09:41:07.928Z,10704.00
2019-05-10T09:42:11.036Z,10636.00
2019-05-10T09:43:09.866Z,11268.00
2019-05-10T09:44:07.884Z,10380.00
2019-05-10T09:45:09.839Z,7920.00
2019-05-10T09:46:08.556Z,5488.00
2019-05-10T09:47:07.895Z,3920.00
2019-05-10T09:48:07.853Z,2960.00
2019-05-10T09:49:15.746Z,2064.00
2019-05-10T09:50:08.920Z,1780.00
2019-05-10T09:51:08.561Z,1848.00
2019-05-10T09:52:12.527Z,1904.00
2019-05-10T09:53:10.254Z,1944.00
2019-05-10T09:54:07.864Z,2128.00
2019-05-10T09:55:10.232Z,2068.00
2019-05-10T09:56:08.780Z,2360.00
2019-05-10T09:57:08.268Z,2472.00
2019-05-10T09:58:08.590Z,2616.00
2019-05-10T09:59:08.527Z,2776.00
2019-05-10T10:00:07.734Z,3028.00
2019-05-10T10:01:14.801Z,3368.00
2019-05-10T10:02:14.549Z,3716.00
2019-05-10T10:03:08.753Z,4052.00
2019-05-10T10:04:07.701Z,4364.00
2019-05-10T10:05:07.663Z,4584.00
2019-05-10T10:06:11.117Z,4740.00
2019-05-10T10:07:07.672Z,4872.00
2019-05-10T10:08:09.086Z,5020.00
2019-05-10T10:09:10.845Z,5200.00
2019-05-10T10:10:07.771Z,5388.00
2019-05-10T10:11:15.094Z,5564.00
2019-05-10T10:12:08.585Z,5784.00
2019-05-10T10:13:13.190Z,5916.00
2019-05-10T10:14:10.206Z,6116.00
2019-05-10T10:15:09.983Z,6352.00
2019-05-10T10:16:10.338Z,6624.00
2019-05-10T10:17:08.661Z,6916.00
2019-05-10T10:18:07.546Z,7276.00
2019-05-10T10:19:07.540Z,7604.00
2019-05-10T10:20:08.452Z,7896.00
2019-05-10T10:21:10.050Z,8104.00
2019-05-10T10:22:11.115Z,8296.00
2019-05-10T10:23:08.535Z,8480.00
2019-05-10T10:24:15.791Z,8772.00
2019-05-10T10:25:08.461Z,9224.00
2019-05-10T10:26:07.450Z,9820.00
2019-05-10T10:27:07.568Z,10664.00
2019-05-10T10:28:16.452Z,11848.00
2019-05-10T10:29:08.441Z,13244.00
2019-05-10T10:30:12.861Z,14616.00
2019-05-10T10:31:08.606Z,15936.00
2019-05-10T10:32:08.130Z,16352.00
2019-05-10T10:33:11.483Z,16096.00
2019-05-10T10:34:08.350Z,16032.00
2019-05-10T10:35:08.077Z,16288.00
2019-05-10T10:36:10.417Z,15616.00
2019-05-10T10:37:07.938Z,13980.00
2019-05-10T10:38:08.073Z,11444.00
2019-05-10T10:39:07.535Z,11324.00
2019-05-10T10:40:08.701Z,10948.00
2019-05-10T10:41:25.606Z,8708.00
2019-05-10T10:42:12.940Z,8604.00
2019-05-10T10:43:08.282Z,7500.00
2019-05-10T10:44:08.414Z,7544.00
2019-05-10T10:45:07.443Z,7988.00
2019-05-10T10:46:11.962Z,8700.00
2019-05-10T10:47:08.410Z,9452.00
2019-05-10T10:48:12.598Z,10028.00
2019-05-10T10:49:10.449Z,10604.00
2019-05-10T10:50:09.108Z,11164.00
2019-05-10T10:51:08.235Z,10764.00
2019-05-10T10:52:11.380Z,10540.00
2019-05-10T10:54:22.200Z,10704.00
2019-05-10T10:55:18.720Z,10132.00
2019-05-10T10:56:17.791Z,9800.00
2019-05-10T10:57:18.052Z,10152.00
2019-05-10T10:58:18.927Z,10972.00
2019-05-10T10:59:18.302Z,11472.00
2019-05-10T11:00:23.244Z,11708.00
2019-05-10T11:01:24.979Z,11036.00
2019-05-10T11:02:32.691Z,11548.00
2019-05-10T11:03:18.725Z,12824.00
2019-05-10T11:04:29.140Z,12976.00
2019-05-10T11:05:26.700Z,12708.00
2019-05-10T11:06:17.619Z,11188.00
2019-05-10T11:07:17.621Z,11012.00
2019-05-10T11:08:17.602Z,9500.00
2019-05-10T11:09:17.597Z,9004.00
2019-05-10T11:10:19.282Z,8872.00
2019-05-10T11:11:17.569Z,8980.00
2019-05-10T11:12:20.849Z,8660.00
2019-05-10T11:13:29.029Z,8388.00
2019-05-10T11:14:20.545Z,9092.00
2019-05-10T11:15:23.086Z,11716.00
2019-05-10T11:16:20.663Z,12832.00
2019-05-10T11:17:17.522Z,13388.00
2019-05-10T11:18:17.507Z,13300.00
2019-05-10T11:19:17.482Z,12948.00
2019-05-10T11:20:17.478Z,12596.00
2019-05-10T11:21:17.464Z,12288.00
2019-05-10T11:22:17.484Z,12060.00
2019-05-10T11:23:17.440Z,11972.00
2019-05-10T11:24:18.731Z,11992.00
2019-05-10T11:25:17.448Z,12152.00
2019-05-10T11:26:17.439Z,12372.00
2019-05-10T11:27:17.509Z,13052.00
2019-05-10T11:28:17.413Z,13108.00
2019-05-10T11:29:25.332Z,12844.00
2019-05-10T11:30:18.426Z,12516.00
2019-05-10T11:31:17.365Z,14008.00
2019-05-10T11:32:17.372Z,14064.00
2019-05-10T11:33:27.291Z,14792.00
2019-05-10T11:34:18.379Z,14408.00
2019-05-10T11:35:25.204Z,13828.00
2019-05-10T11:36:18.339Z,13956.00
2019-05-10T11:37:18.562Z,14004.00
2019-05-10T11:38:18.309Z,13708.00
2019-05-10T11:39:25.920Z,13356.00
2019-05-10T11:40:28.032Z,13244.00
2019-05-10T11:41:23.654Z,13720.00
2019-05-10T11:42:18.256Z,14748.00
2019-05-10T11:43:17.511Z,14500.00
2019-05-10T11:44:18.241Z,12128.00
2019-05-10T11:45:17.226Z,10372.00
2019-05-10T11:46:17.331Z,9764.00
2019-05-10T11:47:24.094Z,11436.00
2019-05-10T11:48:18.184Z,12672.00
2019-05-10T11:49:17.201Z,11212.00
2019-05-10T11:51:18.154Z,12924.00
2019-05-10T11:52:17.138Z,14100.00
2019-05-10T11:53:17.606Z,14692.00
2019-05-10T11:54:17.107Z,15708.00
2019-05-10T11:55:17.112Z,19744.00
2019-05-10T11:56:17.210Z,19584.00
2019-05-10T11:57:17.100Z,16192.00
2019-05-10T11:58:17.083Z,14184.00
2019-05-10T11:59:03.714Z,11340.00
2019-05-10T11:59:17.072Z,18528.00
2019-05-10T12:00:28.069Z,52128.00
2019-05-10T12:01:21.481Z,80288.00
2019-05-10T12:02:35.392Z,79360.00
2019-05-10T12:03:22.388Z,75040.00
2019-05-10T12:04:23.888Z,74048.00
2019-05-10T12:05:22.806Z,76064.00
2019-05-10T12:06:18.023Z,10124.00
2019-05-10T12:07:23.892Z,34304.00
2019-05-10T12:08:17.970Z,14464.00
2019-05-10T12:09:16.977Z,80288.00
2019-05-10T12:10:20.999Z,17984.00
2019-05-10T12:11:29.409Z,23072.00
2019-05-10T12:12:29.716Z,31712.00
2019-05-10T12:13:20.824Z,29472.00
2019-05-10T12:14:17.910Z,16992.00
2019-05-10T12:15:24.741Z,31840.00
2019-05-10T12:16:18.019Z,9752.00
2019-05-10T12:17:16.906Z,7680.00
2019-05-10T12:18:21.909Z,6652.00
2019-05-10T12:19:21.253Z,6188.00
2019-05-10T12:20:17.177Z,6000.00
2019-05-10T12:21:16.873Z,5868.00
2019-05-10T12:22:16.907Z,6104.00
2019-05-10T12:23:22.877Z,6404.00
2019-05-10T12:25:38.020Z,7912.00
2019-05-10T12:26:50.013Z,6872.00